sensor_id;sensor_type;location;lat;lon;timestamp;pressure;altitude;pressure_sealevel;temperature;humidity
64095;BME280;50353;51.420;5.682;2022-10-31T00:01:27;101804.47;;;13.95;90.65
64095;BME280;50353;51.420;5.682;2022-10-31T00:03:53;101806.47;;;13.75;91.61
64095;BME280;50353;51.420;5.682;2022-10-31T00:06:19;101805.91;;;14.00;90.28
64095;BME280;50353;51.420;5.682;2022-10-31T00:08:45;101804.28;;;14.12;88.94
64095;BME280;50353;51.420;5.682;2022-10-31T00:11:11;101800.91;;;13.80;90.04
64095;BME280;50353;51.420;5.682;2022-10-31T00:13:36;101792.75;;;13.83;90.07
64095;BME280;50353;51.420;5.682;2022-10-31T00:16:02;101802.47;;;13.98;89.43
64095;BME280;50353;51.420;5.682;2022-10-31T00:18:27;101795.13;;;13.88;89.39
64095;BME280;50353;51.420;5.682;2022-10-31T00:21:00;101795.66;;;13.78;90.95
64095;BME280;50353;51.420;5.682;2022-10-31T00:23:25;101800.50;;;13.72;91.02
64095;BME280;50353;51.420;5.682;2022-10-31T00:25:50;101794.38;;;13.85;90.63
64095;BME280;50353;51.420;5.682;2022-10-31T00:28:16;101792.78;;;13.67;91.55
64095;BME280;50353;51.420;5.682;2022-10-31T00:30:41;101804.44;;;13.64;92.30
64095;BME280;50353;51.420;5.682;2022-10-31T00:33:06;101797.59;;;13.60;93.31
64095;BME280;50353;51.420;5.682;2022-10-31T00:35:32;101795.31;;;13.84;92.63
64095;BME280;50353;51.420;5.682;2022-10-31T00:37:57;101798.91;;;13.83;92.98
64095;BME280;50353;51.420;5.682;2022-10-31T00:40:22;101794.50;;;13.68;93.99
64095;BME280;50353;51.420;5.682;2022-10-31T00:42:47;101787.47;;;13.67;93.21
64095;BME280;50353;51.420;5.682;2022-10-31T00:45:13;101785.47;;;13.86;91.15
64095;BME280;50353;51.420;5.682;2022-10-31T00:47:38;101784.00;;;13.81;91.81
64095;BME280;50353;51.420;5.682;2022-10-31T00:50:05;101785.38;;;14.02;91.35
64095;BME280;50353;51.420;5.682;2022-10-31T00:52:30;101777.94;;;13.79;92.38
64095;BME280;50353;51.420;5.682;2022-10-31T00:54:55;101779.16;;;13.73;92.17
64095;BME280;50353;51.420;5.682;2022-10-31T00:57:21;101774.78;;;13.72;92.21
64095;BME280;50353;51.420;5.682;2022-10-31T00:59:46;101774.25;;;13.81;92.33
64095;BME280;50353;51.420;5.682;2022-10-31T01:02:11;101770.34;;;13.87;92.10
64095;BME280;50353;51.420;5.682;2022-10-31T01:04:36;101775.91;;;13.68;93.56
64095;BME280;50353;51.420;5.682;2022-10-31T01:07:02;101786.44;;;13.69;93.37
64095;BME280;50353;51.420;5.682;2022-10-31T01:09:27;101786.44;;;13.69;93.38
64095;BME280;50353;51.420;5.682;2022-10-31T01:11:52;101795.63;;;13.64;94.11
64095;BME280;50353;51.420;5.682;2022-10-31T01:14:18;101791.56;;;13.73;93.84
64095;BME280;50353;51.420;5.682;2022-10-31T01:16:43;101795.22;;;13.86;92.70
64095;BME280;50353;51.420;5.682;2022-10-31T01:19:08;101789.91;;;13.86;93.09
64095;BME280;50353;51.420;5.682;2022-10-31T01:21:33;101792.53;;;13.72;92.60
64095;BME280;50353;51.420;5.682;2022-10-31T01:23:59;101798.97;;;13.67;91.35
64095;BME280;50353;51.420;5.682;2022-10-31T01:26:30;101783.69;;;13.71;91.21
64095;BME280;50353;51.420;5.682;2022-10-31T01:28:58;101773.16;;;13.53;90.82
64095;BME280;50353;51.420;5.682;2022-10-31T01:31:26;101774.69;;;13.58;92.58
64095;BME280;50353;51.420;5.682;2022-10-31T01:33:52;101778.97;;;13.76;92.43
64095;BME280;50353;51.420;5.682;2022-10-31T01:36:20;101764.13;;;13.72;92.90
64095;BME280;50353;51.420;5.682;2022-10-31T01:38:47;101777.97;;;13.63;93.23
64095;BME280;50353;51.420;5.682;2022-10-31T01:41:16;101764.88;;;13.44;93.74
64095;BME280;50353;51.420;5.682;2022-10-31T01:43:58;101785.25;;;13.59;91.16
64095;BME280;50353;51.420;5.682;2022-10-31T01:48:53;101782.03;;;13.38;90.17
64095;BME280;50353;51.420;5.682;2022-10-31T01:51:23;101773.28;;;13.20;90.17
64095;BME280;50353;51.420;5.682;2022-10-31T01:53:51;101773.69;;;13.28;90.65
64095;BME280;50353;51.420;5.682;2022-10-31T01:56:21;101771.38;;;13.22;89.63
64095;BME280;50353;51.420;5.682;2022-10-31T01:58:46;101785.94;;;13.47;89.34
64095;BME280;50353;51.420;5.682;2022-10-31T02:01:12;101780.47;;;13.50;91.12
64095;BME280;50353;51.420;5.682;2022-10-31T02:03:39;101783.38;;;13.29;90.67
64095;BME280;50353;51.420;5.682;2022-10-31T02:06:06;101777.56;;;13.39;91.17
64095;BME280;50353;51.420;5.682;2022-10-31T02:08:34;101766.25;;;13.03;87.94
64095;BME280;50353;51.420;5.682;2022-10-31T02:11:00;101779.00;;;12.80;90.64
64095;BME280;50353;51.420;5.682;2022-10-31T02:13:28;101776.19;;;12.99;91.17
64095;BME280;50353;51.420;5.682;2022-10-31T02:15:55;101766.25;;;13.03;91.85
64095;BME280;50353;51.420;5.682;2022-10-31T02:18:22;101761.72;;;13.05;91.84
64095;BME280;50353;51.420;5.682;2022-10-31T02:21:14;101774.66;;;12.95;92.98
64095;BME280;50353;51.420;5.682;2022-10-31T02:24:00;101771.91;;;12.97;91.98
64095;BME280;50353;51.420;5.682;2022-10-31T02:26:51;101771.81;;;12.98;91.21
64095;BME280;50353;51.420;5.682;2022-10-31T02:29:35;101773.03;;;12.93;90.20
64095;BME280;50353;51.420;5.682;2022-10-31T02:35:16;101779.25;;;12.92;89.53
64095;BME280;50353;51.420;5.682;2022-10-31T02:38:00;101770.00;;;12.67;89.15
64095;BME280;50353;51.420;5.682;2022-10-31T02:40:34;101761.59;;;12.75;86.74
64095;BME280;50353;51.420;5.682;2022-10-31T02:43:26;101761.59;;;12.59;89.35
64095;BME280;50353;51.420;5.682;2022-10-31T02:46:05;101766.59;;;12.81;89.74
64095;BME280;50353;51.420;5.682;2022-10-31T02:48:33;101767.44;;;12.81;89.00
64095;BME280;50353;51.420;5.682;2022-10-31T02:51:02;101761.19;;;12.82;87.52
64095;BME280;50353;51.420;5.682;2022-10-31T02:53:35;101767.25;;;12.68;87.03
64095;BME280;50353;51.420;5.682;2022-10-31T02:56:15;101758.50;;;12.50;86.54
64095;BME280;50353;51.420;5.682;2022-10-31T02:58:46;101758.84;;;12.60;88.41
64095;BME280;50353;51.420;5.682;2022-10-31T03:01:46;101760.56;;;12.61;88.87
64095;BME280;50353;51.420;5.682;2022-10-31T03:04:34;101761.25;;;12.65;90.06
64095;BME280;50353;51.420;5.682;2022-10-31T03:07:14;101756.91;;;12.64;90.37
64095;BME280;50353;51.420;5.682;2022-10-31T03:10:03;101756.72;;;12.67;90.34
64095;BME280;50353;51.420;5.682;2022-10-31T03:12:46;101751.47;;;12.49;89.04
64095;BME280;50353;51.420;5.682;2022-10-31T03:15:26;101760.91;;;12.22;90.26
64095;BME280;50353;51.420;5.682;2022-10-31T03:18:01;101752.75;;;12.42;89.37
64095;BME280;50353;51.420;5.682;2022-10-31T03:20:54;101749.34;;;12.56;90.27
64095;BME280;50353;51.420;5.682;2022-10-31T03:23:22;101743.13;;;12.73;89.67
64095;BME280;50353;51.420;5.682;2022-10-31T03:25:51;101746.56;;;12.75;88.84
64095;BME280;50353;51.420;5.682;2022-10-31T03:28:23;101748.22;;;12.44;90.04
64095;BME280;50353;51.420;5.682;2022-10-31T03:30:52;101760.72;;;12.58;90.93
64095;BME280;50353;51.420;5.682;2022-10-31T03:33:24;101749.44;;;12.55;91.28
64095;BME280;50353;51.420;5.682;2022-10-31T03:35:51;101753.91;;;12.70;90.01
64095;BME280;50353;51.420;5.682;2022-10-31T03:38:19;101756.28;;;12.59;91.18
64095;BME280;50353;51.420;5.682;2022-10-31T03:40:46;101754.06;;;12.67;91.23
64095;BME280;50353;51.420;5.682;2022-10-31T03:43:14;101755.59;;;12.55;90.18
64095;BME280;50353;51.420;5.682;2022-10-31T03:45:44;101756.81;;;12.65;89.86
64095;BME280;50353;51.420;5.682;2022-10-31T03:48:10;101751.84;;;12.59;89.04
64095;BME280;50353;51.420;5.682;2022-10-31T03:53:19;101741.72;;;12.50;88.17
64095;BME280;50353;51.420;5.682;2022-10-31T03:56:10;101744.53;;;12.47;88.26
64095;BME280;50353;51.420;5.682;2022-10-31T03:58:44;101745.09;;;12.36;88.44
64095;BME280;50353;51.420;5.682;2022-10-31T04:01:11;101743.38;;;12.35;88.84
64095;BME280;50353;51.420;5.682;2022-10-31T04:03:39;101750.81;;;12.28;89.50
64095;BME280;50353;51.420;5.682;2022-10-31T04:06:08;101753.81;;;12.22;89.70
64095;BME280;50353;51.420;5.682;2022-10-31T04:08:39;101754.44;;;12.10;87.52
64095;BME280;50353;51.420;5.682;2022-10-31T04:11:07;101754.34;;;12.29;87.20
64095;BME280;50353;51.420;5.682;2022-10-31T04:13:35;101757.44;;;12.37;87.81
64095;BME280;50353;51.420;5.682;2022-10-31T04:16:02;101764.06;;;12.28;89.03
64095;BME280;50353;51.420;5.682;2022-10-31T04:18:28;101763.50;;;12.39;88.71
64095;BME280;50353;51.420;5.682;2022-10-31T04:21:02;101760.47;;;12.29;89.84
64095;BME280;50353;51.420;5.682;2022-10-31T04:23:29;101769.03;;;12.52;90.21
64095;BME280;50353;51.420;5.682;2022-10-31T04:25:56;101766.22;;;12.71;90.35
64095;BME280;50353;51.420;5.682;2022-10-31T04:28:21;101761.16;;;12.66;90.55
64095;BME280;50353;51.420;5.682;2022-10-31T04:30:47;101761.59;;;12.75;89.73
64095;BME280;50353;51.420;5.682;2022-10-31T04:33:12;101753.38;;;12.63;90.79
64095;BME280;50353;51.420;5.682;2022-10-31T04:35:38;101752.00;;;12.56;91.09
64095;BME280;50353;51.420;5.682;2022-10-31T04:38:03;101756.00;;;12.47;92.33
64095;BME280;50353;51.420;5.682;2022-10-31T04:40:28;101755.22;;;12.45;93.48
64095;BME280;50353;51.420;5.682;2022-10-31T04:42:53;101747.09;;;12.48;93.81
64095;BME280;50353;51.420;5.682;2022-10-31T04:45:19;101747.31;;;12.61;92.72
64095;BME280;50353;51.420;5.682;2022-10-31T04:47:44;101753.13;;;12.52;94.14
64095;BME280;50353;51.420;5.682;2022-10-31T04:50:09;101748.59;;;12.70;93.27
64095;BME280;50353;51.420;5.682;2022-10-31T04:52:41;101749.78;;;12.64;93.65
64095;BME280;50353;51.420;5.682;2022-10-31T04:55:07;101748.59;;;12.70;93.77
64095;BME280;50353;51.420;5.682;2022-10-31T04:57:40;101740.97;;;12.80;92.89
64095;BME280;50353;51.420;5.682;2022-10-31T05:00:06;101746.72;;;12.72;93.25
64095;BME280;50353;51.420;5.682;2022-10-31T05:02:31;101742.44;;;12.85;93.32
64095;BME280;50353;51.420;5.682;2022-10-31T05:04:57;101747.25;;;12.79;92.26
64095;BME280;50353;51.420;5.682;2022-10-31T05:07:22;101739.44;;;12.76;92.01
64095;BME280;50353;51.420;5.682;2022-10-31T05:09:47;101738.50;;;12.77;91.96
64095;BME280;50353;51.420;5.682;2022-10-31T05:12:13;101732.66;;;12.54;91.86
64095;BME280;50353;51.420;5.682;2022-10-31T05:14:38;101733.19;;;12.61;92.87
64095;BME280;50353;51.420;5.682;2022-10-31T05:17:03;101734.88;;;12.46;92.10
64095;BME280;50353;51.420;5.682;2022-10-31T05:19:28;101733.16;;;12.45;91.71
64095;BME280;50353;51.420;5.682;2022-10-31T05:21:54;101730.56;;;12.43;91.11
64095;BME280;50353;51.420;5.682;2022-10-31T05:24:19;101727.78;;;12.46;90.20
64095;BME280;50353;51.420;5.682;2022-10-31T05:26:47;101734.78;;;12.14;92.07
64095;BME280;50353;51.420;5.682;2022-10-31T05:29:12;101733.59;;;12.20;91.29
64095;BME280;50353;51.420;5.682;2022-10-31T05:31:37;101733.97;;;12.29;91.89
64095;BME280;50353;51.420;5.682;2022-10-31T05:34:03;101728.00;;;12.26;92.31
64095;BME280;50353;51.420;5.682;2022-10-31T05:36:28;101721.16;;;12.38;91.75
64095;BME280;50353;51.420;5.682;2022-10-31T05:38:53;101724.56;;;12.24;91.07
64095;BME280;50353;51.420;5.682;2022-10-31T05:41:18;101727.47;;;12.19;92.86
64095;BME280;50353;51.420;5.682;2022-10-31T05:43:45;101722.69;;;12.26;93.71
64095;BME280;50353;51.420;5.682;2022-10-31T05:46:10;101722.88;;;12.39;91.99
64095;BME280;50353;51.420;5.682;2022-10-31T05:48:36;101722.91;;;12.21;92.33
64095;BME280;50353;51.420;5.682;2022-10-31T05:51:01;101713.03;;;12.25;93.46
64095;BME280;50353;51.420;5.682;2022-10-31T05:53:26;101719.69;;;11.98;91.62
64095;BME280;50353;51.420;5.682;2022-10-31T05:55:51;101725.38;;;12.08;91.97
64095;BME280;50353;51.420;5.682;2022-10-31T05:58:17;101724.91;;;12.17;89.63
64095;BME280;50353;51.420;5.682;2022-10-31T06:00:42;101727.69;;;12.14;90.07
64095;BME280;50353;51.420;5.682;2022-10-31T06:03:08;101728.31;;;12.20;90.88
64095;BME280;50353;51.420;5.682;2022-10-31T06:05:34;101721.81;;;12.25;91.78
64095;BME280;50353;51.420;5.682;2022-10-31T06:07:59;101722.72;;;11.91;91.81
64095;BME280;50353;51.420;5.682;2022-10-31T06:10:25;101722.34;;;11.81;90.42
64095;BME280;50353;51.420;5.682;2022-10-31T06:12:51;101723.97;;;11.66;90.30
64095;BME280;50353;51.420;5.682;2022-10-31T06:15:16;101714.13;;;11.86;90.70
64095;BME280;50353;51.420;5.682;2022-10-31T06:17:41;101714.69;;;11.57;91.19
64095;BME280;50353;51.420;5.682;2022-10-31T06:20:07;101713.38;;;11.83;91.64
64095;BME280;50353;51.420;5.682;2022-10-31T06:22:33;101706.56;;;11.78;89.61
64095;BME280;50353;51.420;5.682;2022-10-31T06:24:58;101690.28;;;11.50;90.26
64095;BME280;50353;51.420;5.682;2022-10-31T06:27:24;101704.00;;;11.76;92.26
64095;BME280;50353;51.420;5.682;2022-10-31T06:29:50;101711.72;;;11.63;94.14
64095;BME280;50353;51.420;5.682;2022-10-31T06:32:16;101718.34;;;11.72;90.33
64095;BME280;50353;51.420;5.682;2022-10-31T06:34:42;101705.88;;;11.74;90.48
64095;BME280;50353;51.420;5.682;2022-10-31T06:37:09;101708.84;;;11.86;89.59
64095;BME280;50353;51.420;5.682;2022-10-31T06:39:35;101707.28;;;11.99;88.82
64095;BME280;50353;51.420;5.682;2022-10-31T06:42:00;101711.09;;;11.76;89.44
64095;BME280;50353;51.420;5.682;2022-10-31T06:44:26;101708.53;;;11.74;89.92
64095;BME280;50353;51.420;5.682;2022-10-31T06:46:51;101709.84;;;11.83;89.42
64095;BME280;50353;51.420;5.682;2022-10-31T06:49:16;101712.09;;;11.56;90.78
64095;BME280;50353;51.420;5.682;2022-10-31T06:51:42;101723.97;;;11.66;89.83
64095;BME280;50353;51.420;5.682;2022-10-31T06:54:07;101719.91;;;11.41;90.78
64095;BME280;50353;51.420;5.682;2022-10-31T06:56:32;101721.19;;;11.32;91.72
64095;BME280;50353;51.420;5.682;2022-10-31T06:58:58;101718.31;;;11.20;91.16
64095;BME280;50353;51.420;5.682;2022-10-31T07:01:23;101722.81;;;11.18;90.68
64095;BME280;50353;51.420;5.682;2022-10-31T07:03:48;101717.78;;;11.30;90.35
64095;BME280;50353;51.420;5.682;2022-10-31T07:06:14;101712.41;;;11.32;91.46
64095;BME280;50353;51.420;5.682;2022-10-31T07:08:39;101716.84;;;11.49;91.66
64095;BME280;50353;51.420;5.682;2022-10-31T07:11:04;101714.00;;;11.54;91.72
64095;BME280;50353;51.420;5.682;2022-10-31T07:13:30;101710.34;;;11.56;91.07
64095;BME280;50353;51.420;5.682;2022-10-31T07:16:00;101710.19;;;11.77;92.35
64095;BME280;50353;51.420;5.682;2022-10-31T07:18:26;101719.34;;;11.70;92.20
64095;BME280;50353;51.420;5.682;2022-10-31T07:20:52;101715.84;;;11.69;94.66
64095;BME280;50353;51.420;5.682;2022-10-31T07:23:18;101714.47;;;11.79;91.37
64095;BME280;50353;51.420;5.682;2022-10-31T07:25:44;101710.84;;;11.80;92.53
64095;BME280;50353;51.420;5.682;2022-10-31T07:28:10;101713.97;;;11.89;92.40
64095;BME280;50353;51.420;5.682;2022-10-31T07:30:36;101718.50;;;11.87;92.74
64095;BME280;50353;51.420;5.682;2022-10-31T07:33:02;101716.78;;;11.86;93.20
64095;BME280;50353;51.420;5.682;2022-10-31T07:35:28;101715.56;;;11.75;92.67
64095;BME280;50353;51.420;5.682;2022-10-31T07:37:54;101722.88;;;11.88;92.73
64095;BME280;50353;51.420;5.682;2022-10-31T07:40:21;101722.41;;;11.97;94.74
64095;BME280;50353;51.420;5.682;2022-10-31T07:42:51;101713.34;;;12.18;93.45
64095;BME280;50353;51.420;5.682;2022-10-31T07:45:19;101730.13;;;12.35;91.70
64095;BME280;50353;51.420;5.682;2022-10-31T07:47:50;101722.53;;;12.29;92.46
64095;BME280;50353;51.420;5.682;2022-10-31T07:50:18;101724.81;;;12.19;93.18
64095;BME280;50353;51.420;5.682;2022-10-31T07:52:43;101730.66;;;12.08;95.94
64095;BME280;50353;51.420;5.682;2022-10-31T07:55:09;101722.47;;;12.13;97.66
64095;BME280;50353;51.420;5.682;2022-10-31T07:57:35;101721.06;;;12.23;98.55
64095;BME280;50353;51.420;5.682;2022-10-31T08:00:05;101708.00;;;12.36;97.89
64095;BME280;50353;51.420;5.682;2022-10-31T08:02:31;101718.72;;;12.50;97.82
64095;BME280;50353;51.420;5.682;2022-10-31T08:04:56;101723.78;;;12.71;96.70
64095;BME280;50353;51.420;5.682;2022-10-31T08:07:21;101729.09;;;12.71;97.99
64095;BME280;50353;51.420;5.682;2022-10-31T08:09:47;101730.97;;;12.69;99.67
64095;BME280;50353;51.420;5.682;2022-10-31T08:12:12;101740.38;;;12.75;99.32
64095;BME280;50353;51.420;5.682;2022-10-31T08:14:37;101730.81;;;12.88;98.04
64095;BME280;50353;51.420;5.682;2022-10-31T08:17:02;101735.25;;;12.88;98.51
64095;BME280;50353;51.420;5.682;2022-10-31T08:19:28;101729.97;;;12.88;99.35
64095;BME280;50353;51.420;5.682;2022-10-31T08:21:53;101727.72;;;12.64;100.00
64095;BME280;50353;51.420;5.682;2022-10-31T08:24:23;101721.75;;;12.76;100.00
64095;BME280;50353;51.420;5.682;2022-10-31T08:26:48;101721.88;;;12.73;100.00
64095;BME280;50353;51.420;5.682;2022-10-31T08:29:13;101707.94;;;12.54;100.00
64095;BME280;50353;51.420;5.682;2022-10-31T08:31:39;101708.53;;;12.59;100.00
64095;BME280;50353;51.420;5.682;2022-10-31T08:34:05;101713.00;;;12.74;100.00
64095;BME280;50353;51.420;5.682;2022-10-31T08:36:30;101709.75;;;12.85;100.00
64095;BME280;50353;51.420;5.682;2022-10-31T08:38:55;101712.69;;;12.80;100.00
64095;BME280;50353;51.420;5.682;2022-10-31T08:41:21;101718.75;;;12.98;100.00
64095;BME280;50353;51.420;5.682;2022-10-31T08:43:46;101720.56;;;12.98;100.00
64095;BME280;50353;51.420;5.682;2022-10-31T08:46:12;101714.03;;;13.04;100.00
64095;BME280;50353;51.420;5.682;2022-10-31T08:48:37;101709.47;;;13.06;100.00
64095;BME280;50353;51.420;5.682;2022-10-31T08:51:03;101705.38;;;13.00;100.00
64095;BME280;50353;51.420;5.682;2022-10-31T08:53:28;101691.34;;;12.98;100.00
64095;BME280;50353;51.420;5.682;2022-10-31T08:55:55;101679.25;;;12.92;100.00
64095;BME280;50353;51.420;5.682;2022-10-31T08:58:22;101668.00;;;12.89;100.00
64095;BME280;50353;51.420;5.682;2022-10-31T09:00:51;101665.56;;;13.16;100.00
64095;BME280;50353;51.420;5.682;2022-10-31T09:03:20;101670.38;;;12.93;100.00
64095;BME280;50353;51.420;5.682;2022-10-31T09:05:45;101663.31;;;13.24;100.00
64095;BME280;50353;51.420;5.682;2022-10-31T09:08:11;101661.09;;;13.16;100.00
64095;BME280;50353;51.420;5.682;2022-10-31T09:10:38;101646.78;;;13.49;100.00
64095;BME280;50353;51.420;5.682;2022-10-31T09:13:09;101639.31;;;13.56;100.00
64095;BME280;50353;51.420;5.682;2022-10-31T09:15:38;101636.88;;;13.67;100.00
64095;BME280;50353;51.420;5.682;2022-10-31T09:18:04;101659.19;;;13.79;100.00
64095;BME280;50353;51.420;5.682;2022-10-31T09:20:31;101660.88;;;13.66;100.00
64095;BME280;50353;51.420;5.682;2022-10-31T09:25:23;101648.66;;;14.07;100.00
64095;BME280;50353;51.420;5.682;2022-10-31T09:27:48;101640.50;;;14.10;100.00
64095;BME280;50353;51.420;5.682;2022-10-31T09:30:13;101647.81;;;14.06;100.00
64095;BME280;50353;51.420;5.682;2022-10-31T09:32:39;101644.50;;;13.88;100.00
64095;BME280;50353;51.420;5.682;2022-10-31T09:35:04;101639.06;;;14.04;100.00
64095;BME280;50353;51.420;5.682;2022-10-31T09:37:30;101633.56;;;13.93;100.00
64095;BME280;50353;51.420;5.682;2022-10-31T09:39:55;101622.06;;;14.07;100.00
64095;BME280;50353;51.420;5.682;2022-10-31T09:42:31;101632.03;;;14.17;100.00
64095;BME280;50353;51.420;5.682;2022-10-31T09:47:44;101618.66;;;14.19;100.00
64095;BME280;50353;51.420;5.682;2022-10-31T09:50:24;101617.13;;;14.29;100.00
64095;BME280;50353;51.420;5.682;2022-10-31T09:52:58;101608.09;;;14.17;100.00
64095;BME280;50353;51.420;5.682;2022-10-31T09:55:44;101600.06;;;14.46;100.00
64095;BME280;50353;51.420;5.682;2022-10-31T09:58:20;101606.38;;;14.31;100.00
64095;BME280;50353;51.420;5.682;2022-10-31T10:00:48;101596.56;;;14.46;100.00
64095;BME280;50353;51.420;5.682;2022-10-31T10:03:26;101594.97;;;14.43;100.00
64095;BME280;50353;51.420;5.682;2022-10-31T10:05:57;101598.88;;;14.79;100.00
64095;BME280;50353;51.420;5.682;2022-10-31T10:08:27;101603.56;;;14.88;100.00
64095;BME280;50353;51.420;5.682;2022-10-31T10:19:47;101599.19;;;15.28;100.00
64095;BME280;50353;51.420;5.682;2022-10-31T10:25:10;101593.88;;;15.15;100.00
64095;BME280;50353;51.420;5.682;2022-10-31T10:30:18;101584.75;;;14.92;100.00
64095;BME280;50353;51.420;5.682;2022-10-31T10:32:48;101560.59;;;15.08;100.00
64095;BME280;50353;51.420;5.682;2022-10-31T10:35:26;101563.28;;;15.20;100.00
64095;BME280;50353;51.420;5.682;2022-10-31T10:38:02;101549.44;;;15.28;100.00
64095;BME280;50353;51.420;5.682;2022-10-31T10:40:33;101543.47;;;15.37;100.00
64095;BME280;50353;51.420;5.682;2022-10-31T10:43:15;101557.66;;;15.38;99.86
64095;BME280;50353;51.420;5.682;2022-10-31T10:45:49;101559.44;;;15.37;100.00
64095;BME280;50353;51.420;5.682;2022-10-31T10:48:51;101558.16;;;15.43;99.61
64095;BME280;50353;51.420;5.682;2022-10-31T10:51:25;101540.72;;;15.52;99.74
64095;BME280;50353;51.420;5.682;2022-10-31T10:54:01;101553.47;;;15.60;99.18
64095;BME280;50353;51.420;5.682;2022-10-31T10:56:36;101549.97;;;15.59;98.84
64095;BME280;50353;51.420;5.682;2022-10-31T10:59:03;101549.34;;;15.68;100.00
64095;BME280;50353;51.420;5.682;2022-10-31T11:01:28;101552.09;;;15.67;99.91
64095;BME280;50353;51.420;5.682;2022-10-31T11:03:54;101540.28;;;15.71;100.00
64095;BME280;50353;51.420;5.682;2022-10-31T11:06:21;101526.09;;;15.83;99.94
64095;BME280;50353;51.420;5.682;2022-10-31T11:08:51;101533.50;;;16.04;98.28
64095;BME280;50353;51.420;5.682;2022-10-31T11:13:44;101521.13;;;16.03;98.92
64095;BME280;50353;51.420;5.682;2022-10-31T11:16:34;101520.34;;;16.14;97.35
64095;BME280;50353;51.420;5.682;2022-10-31T11:19:17;101514.06;;;16.15;96.65
64095;BME280;50353;51.420;5.682;2022-10-31T11:21:44;101513.59;;;16.21;96.01
64095;BME280;50353;51.420;5.682;2022-10-31T11:26:36;101504.53;;;16.48;96.38
64095;BME280;50353;51.420;5.682;2022-10-31T11:29:04;101496.28;;;16.51;96.37
64095;BME280;50353;51.420;5.682;2022-10-31T11:31:32;101485.00;;;16.83;94.13
64095;BME280;50353;51.420;5.682;2022-10-31T11:34:01;101480.25;;;16.86;92.16
64095;BME280;50353;51.420;5.682;2022-10-31T11:36:34;101470.16;;;17.03;90.80
64095;BME280;50353;51.420;5.682;2022-10-31T11:39:04;101466.84;;;17.11;89.74
64095;BME280;50353;51.420;5.682;2022-10-31T11:41:40;101471.44;;;16.97;88.66
64095;BME280;50353;51.420;5.682;2022-10-31T11:44:23;101467.66;;;16.88;89.11
64095;BME280;50353;51.420;5.682;2022-10-31T11:46:58;101476.19;;;16.94;88.82
64095;BME280;50353;51.420;5.682;2022-10-31T11:49:42;101459.75;;;16.76;89.69
64095;BME280;50353;51.420;5.682;2022-10-31T11:52:13;101455.38;;;16.75;90.02
64095;BME280;50353;51.420;5.682;2022-10-31T11:54:47;101454.88;;;16.81;90.07
64095;BME280;50353;51.420;5.682;2022-10-31T11:59:56;101434.16;;;16.84;89.92
64095;BME280;50353;51.420;5.682;2022-10-31T12:02:22;101430.50;;;16.85;89.07
64095;BME280;50353;51.420;5.682;2022-10-31T12:05:04;101419.81;;;16.85;89.47
64095;BME280;50353;51.420;5.682;2022-10-31T12:07:33;101421.16;;;16.80;90.08
64095;BME280;50353;51.420;5.682;2022-10-31T12:09:58;101421.44;;;16.99;88.79
64095;BME280;50353;51.420;5.682;2022-10-31T12:15:33;101410.41;;;17.15;86.78
64095;BME280;50353;51.420;5.682;2022-10-31T12:18:32;101399.81;;;17.14;85.44
64095;BME280;50353;51.420;5.682;2022-10-31T12:21:18;101384.69;;;17.03;87.10
64095;BME280;50353;51.420;5.682;2022-10-31T12:24:02;101383.22;;;17.10;87.95
64095;BME280;50353;51.420;5.682;2022-10-31T12:32:29;101368.38;;;17.17;85.47
64095;BME280;50353;51.420;5.682;2022-10-31T12:40:36;101345.91;;;17.31;84.66
64095;BME280;50353;51.420;5.682;2022-10-31T12:43:34;101347.47;;;16.88;85.14
64095;BME280;50353;51.420;5.682;2022-10-31T12:46:02;101344.66;;;16.67;85.80
64095;BME280;50353;51.420;5.682;2022-10-31T12:52:00;101324.06;;;16.58;86.42
64095;BME280;50353;51.420;5.682;2022-10-31T12:59:44;101287.75;;;16.44;86.51
64095;BME280;50353;51.420;5.682;2022-10-31T13:02:28;101292.13;;;16.34;89.08
64095;BME280;50353;51.420;5.682;2022-10-31T13:05:18;101289.81;;;16.52;88.24
64095;BME280;50353;51.420;5.682;2022-10-31T13:07:52;101278.28;;;16.29;89.53
64095;BME280;50353;51.420;5.682;2022-10-31T13:10:32;101279.75;;;16.55;87.65
64095;BME280;50353;51.420;5.682;2022-10-31T13:13:07;101269.81;;;16.46;88.97
64095;BME280;50353;51.420;5.682;2022-10-31T13:15:47;101271.13;;;16.63;87.08
64095;BME280;50353;51.420;5.682;2022-10-31T13:18:21;101263.47;;;16.36;87.06
64095;BME280;50353;51.420;5.682;2022-10-31T13:20:48;101261.22;;;16.54;87.45
64095;BME280;50353;51.420;5.682;2022-10-31T13:23:28;101240.69;;;16.54;86.94
64095;BME280;50353;51.420;5.682;2022-10-31T13:25:55;101240.34;;;16.36;86.78
64095;BME280;50353;51.420;5.682;2022-10-31T13:28:27;101238.03;;;16.43;86.94
64095;BME280;50353;51.420;5.682;2022-10-31T13:30:54;101233.91;;;16.50;85.81
64095;BME280;50353;51.420;5.682;2022-10-31T13:33:51;101244.09;;;16.56;86.75
64095;BME280;50353;51.420;5.682;2022-10-31T13:36:25;101236.22;;;16.32;86.89
64095;BME280;50353;51.420;5.682;2022-10-31T13:42:11;101221.78;;;16.46;87.25
64095;BME280;50353;51.420;5.682;2022-10-31T13:44:39;101207.47;;;16.47;86.87
64095;BME280;50353;51.420;5.682;2022-10-31T13:47:26;101199.81;;;16.65;85.69
64095;BME280;50353;51.420;5.682;2022-10-31T13:50:22;101204.16;;;16.55;86.58
64095;BME280;50353;51.420;5.682;2022-10-31T13:52:48;101195.09;;;16.69;85.39
64095;BME280;50353;51.420;5.682;2022-10-31T13:55:38;101193.88;;;16.50;85.34
64095;BME280;50353;51.420;5.682;2022-10-31T13:58:17;101180.28;;;16.53;87.09
64095;BME280;50353;51.420;5.682;2022-10-31T14:00:44;101175.66;;;16.67;85.58
64095;BME280;50353;51.420;5.682;2022-10-31T14:03:19;101173.22;;;16.75;84.94